Terminal Aerodrome Forecast
Issued by NWS

Current Version | Previous Version | Text Only | Print | Product List | Glossary On
Versions: 1 2 3 4 5 6 7 8 9 10 11 12 13
000
FTUS42 KMLB 272300
TAFTIX
TAF
KTIX 272321Z 2800/2824 04008KT P6SM FEW030
     FM280300 VRB03KT P6SM FEW020
     FM281500 06007KT P6SM SCT040
      AMD NOT SKED 2801/2811=

USA.gov is the U.S. government's official web portal to all federal, state and local government web resources and services.